sensor_id;sensor_type;location;lat;lon;timestamp;temperature;humidity
360;DHT22;168;48.872;9.226;2023-03-01T00:02:23;1.00;90.00
360;DHT22;168;48.872;9.226;2023-03-01T00:04:50;1.00;89.90
360;DHT22;168;48.872;9.226;2023-03-01T00:07:18;1.10;89.50
360;DHT22;168;48.872;9.226;2023-03-01T00:09:45;1.10;89.60
360;DHT22;168;48.872;9.226;2023-03-01T00:12:13;1.00;89.60
360;DHT22;168;48.872;9.226;2023-03-01T00:14:40;0.90;89.90
360;DHT22;168;48.872;9.226;2023-03-01T00:17:10;0.90;90.50
360;DHT22;168;48.872;9.226;2023-03-01T00:19:37;0.70;90.90
360;DHT22;168;48.872;9.226;2023-03-01T00:22:04;0.60;91.60
360;DHT22;168;48.872;9.226;2023-03-01T00:24:32;0.70;91.90
360;DHT22;168;48.872;9.226;2023-03-01T00:26:59;0.70;91.40
360;DHT22;168;48.872;9.226;2023-03-01T00:29:27;0.80;91.30
360;DHT22;168;48.872;9.226;2023-03-01T00:31:54;0.90;90.60
360;DHT22;168;48.872;9.226;2023-03-01T00:34:23;0.90;90.30
360;DHT22;168;48.872;9.226;2023-03-01T00:36:51;0.90;90.60
360;DHT22;168;48.872;9.226;2023-03-01T00:39:18;0.90;90.50
360;DHT22;168;48.872;9.226;2023-03-01T00:41:46;0.90;90.70
360;DHT22;168;48.872;9.226;2023-03-01T00:44:14;0.90;90.30
360;DHT22;168;48.872;9.226;2023-03-01T00:46:41;1.00;90.30
360;DHT22;168;48.872;9.226;2023-03-01T00:49:08;0.90;90.40
360;DHT22;168;48.872;9.226;2023-03-01T00:51:37;0.80;91.00
360;DHT22;168;48.872;9.226;2023-03-01T00:54:08;0.80;91.20
360;DHT22;168;48.872;9.226;2023-03-01T00:56:36;0.80;91.00
360;DHT22;168;48.872;9.226;2023-03-01T00:59:03;0.80;91.00
360;DHT22;168;48.872;9.226;2023-03-01T01:01:31;0.70;91.40
360;DHT22;168;48.872;9.226;2023-03-01T01:04:01;0.80;91.20
360;DHT22;168;48.872;9.226;2023-03-01T01:06:30;0.90;90.60
360;DHT22;168;48.872;9.226;2023-03-01T01:09:00;0.70;91.20
360;DHT22;168;48.872;9.226;2023-03-01T01:11:29;0.80;90.80
360;DHT22;168;48.872;9.226;2023-03-01T01:13:57;0.80;90.50
360;DHT22;168;48.872;9.226;2023-03-01T01:16:26;0.70;91.20
360;DHT22;168;48.872;9.226;2023-03-01T01:18:54;0.70;91.20
360;DHT22;168;48.872;9.226;2023-03-01T01:21:23;0.60;91.30
360;DHT22;168;48.872;9.226;2023-03-01T01:23:51;0.50;92.00
360;DHT22;168;48.872;9.226;2023-03-01T01:26:22;0.30;92.80
360;DHT22;168;48.872;9.226;2023-03-01T01:28:51;0.30;93.30
360;DHT22;168;48.872;9.226;2023-03-01T01:31:19;0.30;93.60
360;DHT22;168;48.872;9.226;2023-03-01T01:33:46;0.30;93.70
360;DHT22;168;48.872;9.226;2023-03-01T01:36:14;0.50;93.20
360;DHT22;168;48.872;9.226;2023-03-01T01:38:42;0.50;92.70
360;DHT22;168;48.872;9.226;2023-03-01T01:41:12;0.50;92.90
360;DHT22;168;48.872;9.226;2023-03-01T01:43:42;0.50;93.10
360;DHT22;168;48.872;9.226;2023-03-01T01:46:17;0.50;93.00
360;DHT22;168;48.872;9.226;2023-03-01T01:48:52;0.50;93.10
360;DHT22;168;48.872;9.226;2023-03-01T01:51:25;0.40;93.10
360;DHT22;168;48.872;9.226;2023-03-01T01:53:57;0.40;93.30
360;DHT22;168;48.872;9.226;2023-03-01T01:56:26;0.40;93.30
360;DHT22;168;48.872;9.226;2023-03-01T01:58:56;0.50;93.30
360;DHT22;168;48.872;9.226;2023-03-01T02:01:25;0.50;93.00
360;DHT22;168;48.872;9.226;2023-03-01T02:03:52;0.50;93.10
360;DHT22;168;48.872;9.226;2023-03-01T02:06:24;0.60;93.00
360;DHT22;168;48.872;9.226;2023-03-01T02:08:57;0.50;93.10
360;DHT22;168;48.872;9.226;2023-03-01T02:11:27;0.30;94.20
360;DHT22;168;48.872;9.226;2023-03-01T02:13:58;0.30;94.50
360;DHT22;168;48.872;9.226;2023-03-01T02:16:26;0.40;94.60
360;DHT22;168;48.872;9.226;2023-03-01T02:18:55;0.50;94.50
360;DHT22;168;48.872;9.226;2023-03-01T02:21:33;0.50;94.10
360;DHT22;168;48.872;9.226;2023-03-01T02:24:10;0.70;93.60
360;DHT22;168;48.872;9.226;2023-03-01T02:26:46;0.90;92.80
360;DHT22;168;48.872;9.226;2023-03-01T02:29:17;0.80;92.80
360;DHT22;168;48.872;9.226;2023-03-01T02:31:44;0.70;93.50
360;DHT22;168;48.872;9.226;2023-03-01T02:34:14;0.90;93.20
360;DHT22;168;48.872;9.226;2023-03-01T02:36:45;0.90;93.00
360;DHT22;168;48.872;9.226;2023-03-01T02:39:17;1.00;92.80
360;DHT22;168;48.872;9.226;2023-03-01T02:41:47;1.20;92.20
360;DHT22;168;48.872;9.226;2023-03-01T02:44:18;1.30;91.70
360;DHT22;168;48.872;9.226;2023-03-01T02:46:47;1.30;91.60
360;DHT22;168;48.872;9.226;2023-03-01T02:49:24;1.30;91.30
360;DHT22;168;48.872;9.226;2023-03-01T02:52:27;1.40;91.20
360;DHT22;168;48.872;9.226;2023-03-01T02:55:01;1.50;91.20
360;DHT22;168;48.872;9.226;2023-03-01T02:57:31;1.50;90.20
360;DHT22;168;48.872;9.226;2023-03-01T03:00:03;1.60;90.00
360;DHT22;168;48.872;9.226;2023-03-01T03:02:33;1.60;90.10
360;DHT22;168;48.872;9.226;2023-03-01T03:05:06;1.60;90.10
360;DHT22;168;48.872;9.226;2023-03-01T03:07:34;1.60;90.20
360;DHT22;168;48.872;9.226;2023-03-01T03:10:05;1.70;89.70
360;DHT22;168;48.872;9.226;2023-03-01T03:12:33;1.80;89.30
360;DHT22;168;48.872;9.226;2023-03-01T03:15:04;1.80;88.90
360;DHT22;168;48.872;9.226;2023-03-01T03:17:35;1.80;89.10
360;DHT22;168;48.872;9.226;2023-03-01T03:20:03;1.80;89.00
360;DHT22;168;48.872;9.226;2023-03-01T03:22:31;1.80;89.30
360;DHT22;168;48.872;9.226;2023-03-01T03:25:00;1.90;89.20
360;DHT22;168;48.872;9.226;2023-03-01T03:27:28;1.80;89.50
360;DHT22;168;48.872;9.226;2023-03-01T03:29:57;1.90;89.50
360;DHT22;168;48.872;9.226;2023-03-01T03:32:26;1.90;89.40
360;DHT22;168;48.872;9.226;2023-03-01T03:34:54;2.00;89.40
360;DHT22;168;48.872;9.226;2023-03-01T03:37:22;1.90;89.40
360;DHT22;168;48.872;9.226;2023-03-01T03:40:04;1.90;89.30
360;DHT22;168;48.872;9.226;2023-03-01T03:42:41;2.00;88.90
360;DHT22;168;48.872;9.226;2023-03-01T03:45:08;2.00;88.50
360;DHT22;168;48.872;9.226;2023-03-01T03:47:37;1.90;88.60
360;DHT22;168;48.872;9.226;2023-03-01T03:50:06;1.90;89.00
360;DHT22;168;48.872;9.226;2023-03-01T03:52:33;1.90;89.20
360;DHT22;168;48.872;9.226;2023-03-01T03:55:01;1.90;89.30
360;DHT22;168;48.872;9.226;2023-03-01T03:57:28;2.00;89.00
360;DHT22;168;48.872;9.226;2023-03-01T03:59:56;2.00;88.80
360;DHT22;168;48.872;9.226;2023-03-01T04:02:23;2.00;89.00
360;DHT22;168;48.872;9.226;2023-03-01T04:04:53;2.00;88.80
360;DHT22;168;48.872;9.226;2023-03-01T04:07:20;2.00;88.60
360;DHT22;168;48.872;9.226;2023-03-01T04:09:47;2.00;88.70
360;DHT22;168;48.872;9.226;2023-03-01T04:12:15;2.10;88.70
360;DHT22;168;48.872;9.226;2023-03-01T04:14:46;2.10;88.60
360;DHT22;168;48.872;9.226;2023-03-01T04:17:13;2.10;88.70
360;DHT22;168;48.872;9.226;2023-03-01T04:19:41;2.10;88.60
360;DHT22;168;48.872;9.226;2023-03-01T04:22:11;2.10;88.50
360;DHT22;168;48.872;9.226;2023-03-01T04:24:43;2.10;88.50
360;DHT22;168;48.872;9.226;2023-03-01T04:27:11;2.20;88.10
360;DHT22;168;48.872;9.226;2023-03-01T04:29:39;2.20;87.90
360;DHT22;168;48.872;9.226;2023-03-01T04:32:06;2.20;88.00
360;DHT22;168;48.872;9.226;2023-03-01T04:34:35;2.20;88.00
360;DHT22;168;48.872;9.226;2023-03-01T04:37:03;2.30;87.70
360;DHT22;168;48.872;9.226;2023-03-01T04:39:35;2.30;88.10
360;DHT22;168;48.872;9.226;2023-03-01T04:42:16;2.20;88.00
360;DHT22;168;48.872;9.226;2023-03-01T04:44:44;2.30;87.80
360;DHT22;168;48.872;9.226;2023-03-01T04:47:12;2.30;87.80
360;DHT22;168;48.872;9.226;2023-03-01T04:49:40;2.30;87.60
360;DHT22;168;48.872;9.226;2023-03-01T04:52:08;2.30;87.80
360;DHT22;168;48.872;9.226;2023-03-01T04:54:37;2.40;87.40
360;DHT22;168;48.872;9.226;2023-03-01T04:57:04;2.40;87.30
360;DHT22;168;48.872;9.226;2023-03-01T04:59:32;2.40;87.40
360;DHT22;168;48.872;9.226;2023-03-01T05:02:02;2.40;87.30
360;DHT22;168;48.872;9.226;2023-03-01T05:04:32;2.50;87.00
360;DHT22;168;48.872;9.226;2023-03-01T05:06:59;2.50;87.10
360;DHT22;168;48.872;9.226;2023-03-01T05:09:28;2.40;87.00
360;DHT22;168;48.872;9.226;2023-03-01T05:11:57;2.40;87.20
360;DHT22;168;48.872;9.226;2023-03-01T05:14:25;2.40;87.10
360;DHT22;168;48.872;9.226;2023-03-01T05:16:52;2.40;86.70
360;DHT22;168;48.872;9.226;2023-03-01T05:19:20;2.40;86.80
360;DHT22;168;48.872;9.226;2023-03-01T05:21:48;2.40;87.00
360;DHT22;168;48.872;9.226;2023-03-01T05:24:32;2.40;86.80
360;DHT22;168;48.872;9.226;2023-03-01T05:27:02;2.30;87.50
360;DHT22;168;48.872;9.226;2023-03-01T05:29:32;2.30;88.00
360;DHT22;168;48.872;9.226;2023-03-01T05:32:01;2.30;88.00
360;DHT22;168;48.872;9.226;2023-03-01T05:34:32;2.30;87.40
360;DHT22;168;48.872;9.226;2023-03-01T05:37:00;2.30;87.70
360;DHT22;168;48.872;9.226;2023-03-01T05:39:28;2.20;88.10
360;DHT22;168;48.872;9.226;2023-03-01T05:41:59;2.20;88.40
360;DHT22;168;48.872;9.226;2023-03-01T05:44:29;2.30;87.80
360;DHT22;168;48.872;9.226;2023-03-01T05:46:57;2.20;88.10
360;DHT22;168;48.872;9.226;2023-03-01T05:49:25;2.20;88.20
360;DHT22;168;48.872;9.226;2023-03-01T05:51:53;2.30;88.10
360;DHT22;168;48.872;9.226;2023-03-01T05:54:21;2.30;87.70
360;DHT22;168;48.872;9.226;2023-03-01T05:56:49;2.30;87.80
360;DHT22;168;48.872;9.226;2023-03-01T05:59:17;2.30;88.00
360;DHT22;168;48.872;9.226;2023-03-01T06:01:45;2.20;88.40
360;DHT22;168;48.872;9.226;2023-03-01T06:04:13;2.20;88.40
360;DHT22;168;48.872;9.226;2023-03-01T06:06:40;2.30;88.30
360;DHT22;168;48.872;9.226;2023-03-01T06:09:08;2.30;87.90
360;DHT22;168;48.872;9.226;2023-03-01T06:11:36;2.30;87.30
360;DHT22;168;48.872;9.226;2023-03-01T06:14:04;2.30;87.70
360;DHT22;168;48.872;9.226;2023-03-01T06:16:37;2.20;87.90
360;DHT22;168;48.872;9.226;2023-03-01T06:19:07;2.20;87.90
360;DHT22;168;48.872;9.226;2023-03-01T06:21:34;2.10;88.90
360;DHT22;168;48.872;9.226;2023-03-01T06:24:02;2.20;88.50
360;DHT22;168;48.872;9.226;2023-03-01T06:26:32;2.00;88.80
360;DHT22;168;48.872;9.226;2023-03-01T06:29:00;2.00;89.00
360;DHT22;168;48.872;9.226;2023-03-01T06:31:33;2.00;89.20
360;DHT22;168;48.872;9.226;2023-03-01T06:34:02;1.90;89.60
360;DHT22;168;48.872;9.226;2023-03-01T06:36:31;2.00;89.20
360;DHT22;168;48.872;9.226;2023-03-01T06:38:59;1.90;89.20
360;DHT22;168;48.872;9.226;2023-03-01T06:41:27;1.90;88.70
360;DHT22;168;48.872;9.226;2023-03-01T06:43:59;1.80;88.90
360;DHT22;168;48.872;9.226;2023-03-01T06:47:03;1.70;89.60
360;DHT22;168;48.872;9.226;2023-03-01T06:49:31;1.60;89.80
360;DHT22;168;48.872;9.226;2023-03-01T06:52:01;1.70;89.30
360;DHT22;168;48.872;9.226;2023-03-01T06:54:29;1.70;89.20
360;DHT22;168;48.872;9.226;2023-03-01T06:56:56;1.70;89.30
360;DHT22;168;48.872;9.226;2023-03-01T06:59:24;1.70;88.90
360;DHT22;168;48.872;9.226;2023-03-01T07:01:51;1.60;89.30
360;DHT22;168;48.872;9.226;2023-03-01T07:04:19;1.60;89.30
360;DHT22;168;48.872;9.226;2023-03-01T07:06:46;1.70;88.90
360;DHT22;168;48.872;9.226;2023-03-01T07:09:21;1.60;89.30
360;DHT22;168;48.872;9.226;2023-03-01T07:11:49;1.60;89.50
360;DHT22;168;48.872;9.226;2023-03-01T07:14:17;1.60;89.80
360;DHT22;168;48.872;9.226;2023-03-01T07:16:45;1.70;89.70
360;DHT22;168;48.872;9.226;2023-03-01T07:19:13;1.80;89.20
360;DHT22;168;48.872;9.226;2023-03-01T07:21:40;1.80;88.70
360;DHT22;168;48.872;9.226;2023-03-01T07:24:08;1.80;88.90
360;DHT22;168;48.872;9.226;2023-03-01T07:26:38;1.80;89.10
360;DHT22;168;48.872;9.226;2023-03-01T07:29:06;1.80;89.20
360;DHT22;168;48.872;9.226;2023-03-01T07:31:34;1.90;89.10
360;DHT22;168;48.872;9.226;2023-03-01T07:34:04;2.00;88.60
360;DHT22;168;48.872;9.226;2023-03-01T07:36:32;2.10;87.60
360;DHT22;168;48.872;9.226;2023-03-01T07:38:59;2.10;87.10
360;DHT22;168;48.872;9.226;2023-03-01T07:41:29;2.20;87.00
360;DHT22;168;48.872;9.226;2023-03-01T07:43:58;2.20;86.20
360;DHT22;168;48.872;9.226;2023-03-01T07:46:25;2.20;86.40
360;DHT22;168;48.872;9.226;2023-03-01T07:48:53;2.20;86.00
360;DHT22;168;48.872;9.226;2023-03-01T07:51:20;2.30;86.00
360;DHT22;168;48.872;9.226;2023-03-01T07:53:47;2.30;85.90
360;DHT22;168;48.872;9.226;2023-03-01T07:56:16;2.40;85.50
360;DHT22;168;48.872;9.226;2023-03-01T07:58:44;2.50;84.50
360;DHT22;168;48.872;9.226;2023-03-01T08:01:17;2.50;84.70
360;DHT22;168;48.872;9.226;2023-03-01T08:03:45;2.40;84.70
360;DHT22;168;48.872;9.226;2023-03-01T08:06:14;2.50;85.30
360;DHT22;168;48.872;9.226;2023-03-01T08:08:42;2.50;85.20
360;DHT22;168;48.872;9.226;2023-03-01T08:11:11;2.60;84.30
360;DHT22;168;48.872;9.226;2023-03-01T08:13:39;2.60;84.10
360;DHT22;168;48.872;9.226;2023-03-01T08:16:10;2.60;84.20
360;DHT22;168;48.872;9.226;2023-03-01T08:18:39;2.70;84.10
360;DHT22;168;48.872;9.226;2023-03-01T08:21:09;2.80;84.00
360;DHT22;168;48.872;9.226;2023-03-01T08:23:36;2.80;83.40
360;DHT22;168;48.872;9.226;2023-03-01T08:26:06;2.90;83.10
360;DHT22;168;48.872;9.226;2023-03-01T08:28:35;2.90;83.30
360;DHT22;168;48.872;9.226;2023-03-01T08:31:03;3.00;82.30
360;DHT22;168;48.872;9.226;2023-03-01T08:33:31;3.00;82.50
360;DHT22;168;48.872;9.226;2023-03-01T08:36:04;3.10;82.20
360;DHT22;168;48.872;9.226;2023-03-01T08:38:33;3.20;81.90
360;DHT22;168;48.872;9.226;2023-03-01T08:41:00;3.30;81.50
360;DHT22;168;48.872;9.226;2023-03-01T08:43:29;3.40;81.30
360;DHT22;168;48.872;9.226;2023-03-01T08:45:57;3.40;80.10
360;DHT22;168;48.872;9.226;2023-03-01T08:48:25;3.50;80.30
360;DHT22;168;48.872;9.226;2023-03-01T08:50:54;3.60;79.90
360;DHT22;168;48.872;9.226;2023-03-01T08:53:23;3.60;80.00
360;DHT22;168;48.872;9.226;2023-03-01T08:55:51;3.70;79.40
360;DHT22;168;48.872;9.226;2023-03-01T08:58:18;3.70;79.20
360;DHT22;168;48.872;9.226;2023-03-01T09:00:46;3.70;80.00
360;DHT22;168;48.872;9.226;2023-03-01T09:03:13;3.80;79.20
360;DHT22;168;48.872;9.226;2023-03-01T09:05:41;3.80;79.20
360;DHT22;168;48.872;9.226;2023-03-01T09:08:08;4.00;78.90
360;DHT22;168;48.872;9.226;2023-03-01T09:10:39;4.00;78.20
360;DHT22;168;48.872;9.226;2023-03-01T09:13:06;4.00;78.60
360;DHT22;168;48.872;9.226;2023-03-01T09:15:33;4.00;77.80
360;DHT22;168;48.872;9.226;2023-03-01T09:18:01;4.10;78.40
360;DHT22;168;48.872;9.226;2023-03-01T09:20:30;4.20;78.10
360;DHT22;168;48.872;9.226;2023-03-01T09:22:58;4.20;77.60
360;DHT22;168;48.872;9.226;2023-03-01T09:25:26;4.30;77.50
360;DHT22;168;48.872;9.226;2023-03-01T09:27:54;4.30;76.70
360;DHT22;168;48.872;9.226;2023-03-01T09:30:22;4.40;77.10
360;DHT22;168;48.872;9.226;2023-03-01T09:32:50;4.40;77.40
360;DHT22;168;48.872;9.226;2023-03-01T09:35:18;4.50;76.10
360;DHT22;168;48.872;9.226;2023-03-01T09:37:46;4.50;76.40
360;DHT22;168;48.872;9.226;2023-03-01T09:42:51;4.60;76.40
360;DHT22;168;48.872;9.226;2023-03-01T09:45:27;4.80;76.10
360;DHT22;168;48.872;9.226;2023-03-01T09:47:56;4.80;75.90
360;DHT22;168;48.872;9.226;2023-03-01T09:50:27;5.10;75.10
360;DHT22;168;48.872;9.226;2023-03-01T09:53:01;5.10;74.20
360;DHT22;168;48.872;9.226;2023-03-01T09:55:33;5.20;74.20
360;DHT22;168;48.872;9.226;2023-03-01T09:58:06;5.20;73.60
360;DHT22;168;48.872;9.226;2023-03-01T10:00:43;5.30;74.30
360;DHT22;168;48.872;9.226;2023-03-01T10:03:17;5.50;72.90
360;DHT22;168;48.872;9.226;2023-03-01T10:05:56;5.60;72.90
360;DHT22;168;48.872;9.226;2023-03-01T10:08:29;5.70;72.30
360;DHT22;168;48.872;9.226;2023-03-01T10:10:59;5.80;72.10
360;DHT22;168;48.872;9.226;2023-03-01T10:13:33;5.90;71.80
360;DHT22;168;48.872;9.226;2023-03-01T10:16:09;5.90;71.30
360;DHT22;168;48.872;9.226;2023-03-01T10:18:38;6.00;71.20
360;DHT22;168;48.872;9.226;2023-03-01T10:21:14;6.00;71.80
360;DHT22;168;48.872;9.226;2023-03-01T10:23:43;6.00;71.20
360;DHT22;168;48.872;9.226;2023-03-01T10:26:28;6.10;71.90
360;DHT22;168;48.872;9.226;2023-03-01T10:29:02;6.20;70.80
360;DHT22;168;48.872;9.226;2023-03-01T10:31:38;6.30;70.60
360;DHT22;168;48.872;9.226;2023-03-01T10:34:15;6.30;71.10
360;DHT22;168;48.872;9.226;2023-03-01T10:36:44;6.30;71.20
360;DHT22;168;48.872;9.226;2023-03-01T10:39:17;6.60;70.40
360;DHT22;168;48.872;9.226;2023-03-01T10:41:57;6.70;70.70
360;DHT22;168;48.872;9.226;2023-03-01T10:44:40;6.80;70.50
360;DHT22;168;48.872;9.226;2023-03-01T10:47:18;7.00;69.20
360;DHT22;168;48.872;9.226;2023-03-01T10:49:56;7.20;68.60
360;DHT22;168;48.872;9.226;2023-03-01T10:52:32;7.30;67.50
360;DHT22;168;48.872;9.226;2023-03-01T10:55:03;7.40;67.30
360;DHT22;168;48.872;9.226;2023-03-01T10:57:34;7.60;67.40
360;DHT22;168;48.872;9.226;2023-03-01T11:00:24;7.80;66.90
360;DHT22;168;48.872;9.226;2023-03-01T11:03:12;7.90;65.70
360;DHT22;168;48.872;9.226;2023-03-01T11:05:58;7.80;66.20
360;DHT22;168;48.872;9.226;2023-03-01T11:08:38;7.90;66.80
360;DHT22;168;48.872;9.226;2023-03-01T11:11:25;8.00;66.00
360;DHT22;168;48.872;9.226;2023-03-01T11:13:59;8.10;65.60
360;DHT22;168;48.872;9.226;2023-03-01T11:16:32;8.30;65.00
360;DHT22;168;48.872;9.226;2023-03-01T11:19:17;8.30;65.20
360;DHT22;168;48.872;9.226;2023-03-01T11:21:55;8.40;65.40
360;DHT22;168;48.872;9.226;2023-03-01T11:24:31;8.40;64.40
360;DHT22;168;48.872;9.226;2023-03-01T11:27:03;8.50;65.30
360;DHT22;168;48.872;9.226;2023-03-01T11:29:35;8.60;65.40
360;DHT22;168;48.872;9.226;2023-03-01T11:32:07;8.70;64.00
360;DHT22;168;48.872;9.226;2023-03-01T11:34:42;8.70;63.50
360;DHT22;168;48.872;9.226;2023-03-01T11:37:26;8.80;63.40
360;DHT22;168;48.872;9.226;2023-03-01T11:40:07;8.80;63.60
360;DHT22;168;48.872;9.226;2023-03-01T11:42:54;8.90;63.60
360;DHT22;168;48.872;9.226;2023-03-01T11:45:30;8.80;63.40
360;DHT22;168;48.872;9.226;2023-03-01T11:51:41;8.60;64.50
360;DHT22;168;48.872;9.226;2023-03-01T12:10:47;8.20;65.70
360;DHT22;168;48.872;9.226;2023-03-01T12:13:27;8.30;64.50
360;DHT22;168;48.872;9.226;2023-03-01T12:16:21;8.40;64.90
360;DHT22;168;48.872;9.226;2023-03-01T12:19:15;8.40;65.20
360;DHT22;168;48.872;9.226;2023-03-01T12:21:58;8.60;64.70
360;DHT22;168;48.872;9.226;2023-03-01T12:24:50;8.60;64.10
360;DHT22;168;48.872;9.226;2023-03-01T12:27:33;8.50;64.40
360;DHT22;168;48.872;9.226;2023-03-01T12:30:20;8.60;64.60
360;DHT22;168;48.872;9.226;2023-03-01T12:32:59;8.70;64.60
360;DHT22;168;48.872;9.226;2023-03-01T12:35:39;8.80;64.80
360;DHT22;168;48.872;9.226;2023-03-01T12:38:20;8.70;64.40
360;DHT22;168;48.872;9.226;2023-03-01T12:41:26;8.70;64.80
360;DHT22;168;48.872;9.226;2023-03-01T12:44:05;8.80;64.60
360;DHT22;168;48.872;9.226;2023-03-01T12:46:49;8.90;64.40
360;DHT22;168;48.872;9.226;2023-03-01T12:49:23;9.00;63.60
360;DHT22;168;48.872;9.226;2023-03-01T12:51:56;9.00;63.70
360;DHT22;168;48.872;9.226;2023-03-01T12:54:27;9.10;63.10
360;DHT22;168;48.872;9.226;2023-03-01T12:57:06;9.10;63.20
360;DHT22;168;48.872;9.226;2023-03-01T12:59:39;8.80;63.20
360;DHT22;168;48.872;9.226;2023-03-01T13:05:19;8.80;64.00
360;DHT22;168;48.872;9.226;2023-03-01T13:08:11;8.70;64.00
360;DHT22;168;48.872;9.226;2023-03-01T13:10:46;8.70;64.20
360;DHT22;168;48.872;9.226;2023-03-01T13:13:24;8.70;64.00
360;DHT22;168;48.872;9.226;2023-03-01T13:15:52;8.60;64.70
360;DHT22;168;48.872;9.226;2023-03-01T13:18:31;8.60;64.50
360;DHT22;168;48.872;9.226;2023-03-01T13:21:14;8.50;64.60
360;DHT22;168;48.872;9.226;2023-03-01T13:23:56;8.60;64.80
360;DHT22;168;48.872;9.226;2023-03-01T13:26:24;8.60;65.40
360;DHT22;168;48.872;9.226;2023-03-01T13:28:55;8.70;65.70
360;DHT22;168;48.872;9.226;2023-03-01T13:34:41;9.00;64.80
360;DHT22;168;48.872;9.226;2023-03-01T13:37:10;9.00;64.00
360;DHT22;168;48.872;9.226;2023-03-01T13:46:17;8.80;64.80
360;DHT22;168;48.872;9.226;2023-03-01T13:48:49;8.90;65.50
360;DHT22;168;48.872;9.226;2023-03-01T13:51:23;8.90;65.40
360;DHT22;168;48.872;9.226;2023-03-01T13:53:59;9.10;65.20
360;DHT22;168;48.872;9.226;2023-03-01T13:56:28;9.20;64.70
360;DHT22;168;48.872;9.226;2023-03-01T13:59:14;9.20;64.40
360;DHT22;168;48.872;9.226;2023-03-01T14:01:54;9.20;65.40
360;DHT22;168;48.872;9.226;2023-03-01T14:04:29;9.30;65.20
360;DHT22;168;48.872;9.226;2023-03-01T14:07:18;9.30;64.60
360;DHT22;168;48.872;9.226;2023-03-01T14:10:14;9.40;64.10
360;DHT22;168;48.872;9.226;2023-03-01T14:12:46;9.50;63.90
360;DHT22;168;48.872;9.226;2023-03-01T14:15:19;9.40;64.00
360;DHT22;168;48.872;9.226;2023-03-01T14:17:57;9.30;64.50
360;DHT22;168;48.872;9.226;2023-03-01T14:20:27;9.20;64.70
360;DHT22;168;48.872;9.226;2023-03-01T14:22:58;9.10;65.20
360;DHT22;168;48.872;9.226;2023-03-01T14:25:28;9.10;65.40
360;DHT22;168;48.872;9.226;2023-03-01T14:28:00;9.00;64.60
360;DHT22;168;48.872;9.226;2023-03-01T14:30:31;8.90;65.10
360;DHT22;168;48.872;9.226;2023-03-01T14:33:02;9.00;64.90
360;DHT22;168;48.872;9.226;2023-03-01T14:35:33;9.00;65.90
360;DHT22;168;48.872;9.226;2023-03-01T14:38:01;9.20;65.30
360;DHT22;168;48.872;9.226;2023-03-01T14:40:31;9.30;65.50
360;DHT22;168;48.872;9.226;2023-03-01T14:43:01;9.30;65.00
360;DHT22;168;48.872;9.226;2023-03-01T14:45:30;9.50;64.70
360;DHT22;168;48.872;9.226;2023-03-01T14:48:02;9.60;64.10
360;DHT22;168;48.872;9.226;2023-03-01T14:50:31;9.70;63.90
360;DHT22;168;48.872;9.226;2023-03-01T14:53:00;9.70;63.70
360;DHT22;168;48.872;9.226;2023-03-01T14:55:31;9.70;64.10
360;DHT22;168;48.872;9.226;2023-03-01T14:58:03;9.80;63.40
360;DHT22;168;48.872;9.226;2023-03-01T15:00:33;9.80;63.70
360;DHT22;168;48.872;9.226;2023-03-01T15:03:08;9.80;63.10
360;DHT22;168;48.872;9.226;2023-03-01T15:05:40;9.80;63.40
360;DHT22;168;48.872;9.226;2023-03-01T15:08:18;9.70;63.30
360;DHT22;168;48.872;9.226;2023-03-01T15:10:58;9.70;63.50
360;DHT22;168;48.872;9.226;2023-03-01T15:13:30;9.70;63.70
360;DHT22;168;48.872;9.226;2023-03-01T15:16:09;9.60;63.80
360;DHT22;168;48.872;9.226;2023-03-01T15:18:44;9.60;64.10
360;DHT22;168;48.872;9.226;2023-03-01T15:21:18;9.70;63.70
360;DHT22;168;48.872;9.226;2023-03-01T15:23:49;9.70;63.50
360;DHT22;168;48.872;9.226;2023-03-01T15:26:23;9.70;63.30
360;DHT22;168;48.872;9.226;2023-03-01T15:28:54;9.60;62.90
360;DHT22;168;48.872;9.226;2023-03-01T15:31:26;9.60;63.10
360;DHT22;168;48.872;9.226;2023-03-01T15:34:10;9.70;63.30
360;DHT22;168;48.872;9.226;2023-03-01T15:36:43;9.70;63.10
360;DHT22;168;48.872;9.226;2023-03-01T15:39:31;9.60;63.00
360;DHT22;168;48.872;9.226;2023-03-01T15:42:04;9.60;62.90
360;DHT22;168;48.872;9.226;2023-03-01T15:44:34;9.60;63.20
360;DHT22;168;48.872;9.226;2023-03-01T15:47:03;9.60;63.40
360;DHT22;168;48.872;9.226;2023-03-01T15:49:39;9.70;63.00
360;DHT22;168;48.872;9.226;2023-03-01T15:52:12;9.80;62.90
360;DHT22;168;48.872;9.226;2023-03-01T15:54:40;9.90;62.30
360;DHT22;168;48.872;9.226;2023-03-01T15:57:12;9.90;62.70
360;DHT22;168;48.872;9.226;2023-03-01T15:59:41;9.90;62.40
360;DHT22;168;48.872;9.226;2023-03-01T16:02:10;9.90;62.30
360;DHT22;168;48.872;9.226;2023-03-01T16:04:40;9.90;62.20
360;DHT22;168;48.872;9.226;2023-03-01T16:07:09;9.80;62.60
360;DHT22;168;48.872;9.226;2023-03-01T16:09:36;9.90;63.10
360;DHT22;168;48.872;9.226;2023-03-01T16:12:05;10.00;62.70
360;DHT22;168;48.872;9.226;2023-03-01T16:14:33;10.00;62.10
360;DHT22;168;48.872;9.226;2023-03-01T16:17:00;9.90;62.30
360;DHT22;168;48.872;9.226;2023-03-01T16:19:27;9.80;62.50
360;DHT22;168;48.872;9.226;2023-03-01T16:21:56;9.70;62.70
360;DHT22;168;48.872;9.226;2023-03-01T16:24:23;9.60;63.10
360;DHT22;168;48.872;9.226;2023-03-01T16:26:52;9.50;63.00
360;DHT22;168;48.872;9.226;2023-03-01T16:29:19;9.50;63.40
360;DHT22;168;48.872;9.226;2023-03-01T16:31:46;9.40;63.50
360;DHT22;168;48.872;9.226;2023-03-01T16:34:14;9.30;63.60
360;DHT22;168;48.872;9.226;2023-03-01T16:36:42;9.20;64.10
360;DHT22;168;48.872;9.226;2023-03-01T16:39:11;9.10;64.50
360;DHT22;168;48.872;9.226;2023-03-01T16:41:38;9.00;64.60
360;DHT22;168;48.872;9.226;2023-03-01T16:44:06;9.00;64.60
360;DHT22;168;48.872;9.226;2023-03-01T16:46:38;8.90;64.60
360;DHT22;168;48.872;9.226;2023-03-01T16:49:13;8.80;64.90
360;DHT22;168;48.872;9.226;2023-03-01T16:51:40;8.70;65.00
360;DHT22;168;48.872;9.226;2023-03-01T16:54:08;8.60;65.10
360;DHT22;168;48.872;9.226;2023-03-01T16:56:37;8.50;65.40
360;DHT22;168;48.872;9.226;2023-03-01T16:59:05;8.30;65.80
360;DHT22;168;48.872;9.226;2023-03-01T17:01:33;8.10;66.40
360;DHT22;168;48.872;9.226;2023-03-01T17:04:04;7.90;66.90
360;DHT22;168;48.872;9.226;2023-03-01T17:06:31;7.80;67.30
360;DHT22;168;48.872;9.226;2023-03-01T17:08:59;7.70;67.40
360;DHT22;168;48.872;9.226;2023-03-01T17:11:27;7.60;67.60
360;DHT22;168;48.872;9.226;2023-03-01T17:13:56;7.50;68.00
360;DHT22;168;48.872;9.226;2023-03-01T17:16:23;7.50;68.10
360;DHT22;168;48.872;9.226;2023-03-01T17:18:50;7.30;68.70
360;DHT22;168;48.872;9.226;2023-03-01T17:21:18;7.30;68.80
360;DHT22;168;48.872;9.226;2023-03-01T17:23:46;7.20;69.10
360;DHT22;168;48.872;9.226;2023-03-01T17:26:15;7.10;69.30
360;DHT22;168;48.872;9.226;2023-03-01T17:28:43;7.00;69.70
360;DHT22;168;48.872;9.226;2023-03-01T17:31:12;6.90;70.20
360;DHT22;168;48.872;9.226;2023-03-01T17:33:39;6.80;70.70
360;DHT22;168;48.872;9.226;2023-03-01T17:36:06;6.70;70.90
360;DHT22;168;48.872;9.226;2023-03-01T17:38:34;6.60;71.50
360;DHT22;168;48.872;9.226;2023-03-01T17:41:02;6.50;71.90
360;DHT22;168;48.872;9.226;2023-03-01T17:43:30;6.40;72.30
360;DHT22;168;48.872;9.226;2023-03-01T17:45:59;6.40;72.50
360;DHT22;168;48.872;9.226;2023-03-01T17:48:28;6.40;72.60
360;DHT22;168;48.872;9.226;2023-03-01T17:50:55;6.40;72.70
360;DHT22;168;48.872;9.226;2023-03-01T17:53:23;6.40;72.70
360;DHT22;168;48.872;9.226;2023-03-01T17:55:58;6.40;72.80